• Join FlightAware (Why Join?)
  • Login
  • US Flag 
08:13AM EDT


 

Airport Tracker/Info


-or-


 

Live Flight TrackerFlight Track Log ✈ AAY857 ✈ 29-Mar-2014 ✈ KSBN - KPIE

Flight Track Log - Related Links

Times and Time Zones

All times are in EDT time to prevent confusion due to time zone crossing. See the AAY857 flight status page for this flight to view local times or setup timezone preferences in your user account.

Time Position Orientation Groundspeed Altitude Reporting Facility
EDT Latitude Longitude Course Direction KTS MPH feet Rate Location/Type
02:32PM 41.6983 -86.2717 128° Southeast 174 200 2,200  Level Chicago Center
02:33PM 41.6619 -86.2092 128° Southeast 222 255 3,800 2,160 Climbing Chicago Center
02:34PM 41.6136 -86.1336 131° Southeast 258 297 6,700 2,460 Climbing Chicago Center
02:35PM 41.5611 -86.0561 132° Southeast 278 320 9,000 2,040 Climbing Chicago Center
02:36PM 41.5061 -85.9711 131° Southeast 301 346 11,000 2,160 Climbing Chicago Center
02:37PM 41.4283 -85.8564 132° Southeast 350 403 13,500 2,100 Climbing Chicago Center
02:38PM 41.3625 -85.7569 131° Southeast 360 414 15,400 1,740 Climbing Chicago Center
02:39PM 41.2917 -85.6525 132° Southeast 376 433 17,100 1,980 Climbing Chicago Center
02:40PM 41.2231 -85.5469 131° Southeast 382 440 19,600 1,980 Climbing Chicago Center
02:41PM 41.1547 -85.4481 133° Southeast 370 426 21,200 1,680 Climbing Chicago Center
02:42PM 41.0658 -85.3333 136° Southeast 373 429 23,100 1,560 Climbing Chicago Center
02:43PM 40.9808 -85.2558 145° Southeast 375 432 24,500 1,140 Climbing Chicago Center
02:44PM 40.8881 -85.1944 153° Southeast 375 432 25,500 1,020 Climbing Chicago Center
02:45PM 40.7900 -85.1561 164° South 368 423 26,700 1,020 Climbing Chicago Center
02:46PM 40.6903 -85.1139 162° South 371 427 27,700 840 Climbing Chicago Center
02:47PM 40.6167 -85.0872 165° South 373 429 28,300 780 Climbing Indianapolis Center
02:48PM 40.5136 -85.0456 163° South 381 438 29,100 720 Climbing Indianapolis Center
02:49PM 40.4106 -85.0022 162° South 384 442 29,800 720 Climbing Indianapolis Center
02:50PM 40.2831 -84.9522 163° South 393 452 30,700 540 Climbing Indianapolis Center
02:51PM 40.1792 -84.9114 163° South 393 452 31,000 120 Climbing Indianapolis Center
02:52PM 40.0889 -84.8744 163° South 380 437 31,000  Level Indianapolis Center
02:53PM 39.9894 -84.8347 163° South 379 436 31,000  Level Indianapolis Center
02:54PM 39.8686 -84.7875 163° South 379 436 31,000  Level Indianapolis Center
02:55PM 39.7681 -84.7475 163° South 379 436 31,000  Level Indianapolis Center
02:56PM 39.6686 -84.7078 163° South 379 436 31,000  Level Indianapolis Center
02:57PM 39.5678 -84.6672 163° South 379 436 31,000  Level Indianapolis Center
02:58PM 39.4672 -84.6278 163° South 379 436 31,000  Level Indianapolis Center
02:59PM 39.3664 -84.5894 164° South 379 436 31,000  Level Indianapolis Center
03:00PM 39.2469 -84.5428 163° South 379 436 31,000  Level Indianapolis Center
03:01PM 39.1467 -84.5036 163° South 379 436 31,000  Level Indianapolis Center
03:02PM 39.0456 -84.4647 163° South 379 436 31,000  Level Indianapolis Center
03:03PM 38.9447 -84.4253 163° South 379 436 31,000  Level Indianapolis Center
03:05PM 38.8433 -84.3867 163° South 379 436 31,000  Level Indianapolis Center
03:06PM 38.7417 -84.3472 163° South 380 437 31,000  Level Indianapolis Center
03:07PM 38.6361 -84.3081 164° South 381 438 31,000  Level Indianapolis Center
03:08PM 38.5133 -84.2892 173° South 381 438 31,000  Level Indianapolis Center
03:09PM 38.4064 -84.2750 174° South 382 440 31,000  Level Indianapolis Center
03:10PM 38.3003 -84.2556 172° South 382 440 31,000  Level Indianapolis Center
03:11PM 38.1922 -84.2403 174° South 386 444 31,000  Level Indianapolis Center
03:12PM 38.0844 -84.2219 172° South 387 445 31,000  Level Indianapolis Center
03:13PM 37.9756 -84.2056 173° South 389 448 31,000  Level Indianapolis Center
03:14PM 37.8678 -84.1897 173° South 389 448 31,000  Level Indianapolis Center
03:15PM 37.7414 -84.1706 173° South 389 448 31,000  Level Indianapolis Center
03:16PM 37.6336 -84.1533 173° South 389 448 31,000  Level Indianapolis Center
03:17PM 37.5261 -84.1372 173° South 389 448 31,000  Level Indianapolis Center
03:18PM 37.4178 -84.1203 173° South 389 448 31,000 420 Level Indianapolis Center
03:19PM 37.3106 -84.1050 174° South 389 448 31,900 780 Climbing Indianapolis Center
03:20PM 37.2011 -84.0883 173° South 390 449 32,700 480 Climbing Indianapolis Center
03:21PM 37.0722 -84.0689 173° South 395 455 33,000 120 Climbing Indianapolis Center
03:22PM 36.9600 -84.0511 173° South 400 460 33,000  Level Indianapolis Center
03:23PM 36.8483 -84.0350 173° South 401 461 33,000  Level Indianapolis Center
03:24PM 36.7367 -84.0181 173° South 402 463 33,000  Level Indianapolis Center
03:25PM 36.6250 -84.0019 173° South 402 463 33,000  Level Indianapolis Center
03:26PM 36.4997 -83.9825 173° South 403 464 33,000  Level Indianapolis Center
03:27PM 36.3844 -83.9658 173° South 409 471 33,000  Level Indianapolis Center
03:28PM 36.2689 -83.9489 173° South 412 474 33,000  Level Indianapolis Center
03:29PM 36.1539 -83.9317 173° South 412 474 33,000  Level Indianapolis Center
03:30PM 36.0644 -83.9206 174° South 412 474 33,000  Level Atlanta Center
03:31PM 35.9519 -83.9053 174° South 412 474 33,000  Level Atlanta Center
03:32PM 35.8475 -83.9106 182° South 395 455 33,000  Level Atlanta Center
03:33PM 35.7433 -83.9339 190° South 389 448 33,000  Level Atlanta Center
03:34PM 35.6306 -83.9622 192° South 389 448 33,000  Level Atlanta Center
03:35PM 35.5306 -83.9878 192° South 379 436 33,000  Level Atlanta Center
03:36PM 35.4303 -84.0108 191° South 373 429 33,000  Level Atlanta Center
03:37PM 35.3322 -84.0361 192° South 373 429 33,000  Level Atlanta Center
03:38PM 35.2281 -84.0617 191° South 373 429 33,000  Level Atlanta Center
03:39PM 35.1236 -84.0844 190° South 373 429 33,000  Level Atlanta Center
03:40PM 35.0192 -84.1097 191° South 373 429 33,000  Level Atlanta Center
03:41PM 34.9169 -84.1375 193° South 378 435 33,000  Level Atlanta Center
03:42PM 34.8128 -84.1603 190° South 378 435 33,000  Level Atlanta Center
03:43PM 34.7083 -84.1878 192° South 378 435 33,000  Level Atlanta Center
03:44PM 34.6061 -84.2078 189° South 379 436 33,000  Level Atlanta Center
03:45PM 34.4975 -84.2328 191° South 379 436 33,000  Level Atlanta Center
03:46PM 34.3911 -84.2578 191° South 385 443 33,000  Level Atlanta Center
03:47PM 34.2867 -84.2828 191° South 390 449 33,000  Level Atlanta Center
03:48PM 34.1822 -84.3075 191° South 390 449 33,000  Level Atlanta Center
03:49PM 34.0839 -84.3297 191° South 390 449 33,000  Level Atlanta Center
03:50PM 33.9733 -84.3569 192° South 390 449 33,000  Level Atlanta Center
03:51PM 33.8669 -84.3814 191° South 390 449 33,000  Level Atlanta Center
03:52PM 33.7583 -84.4061 191° South 390 449 33,000  Level Atlanta Center
03:53PM 33.6558 -84.4306 191° South 384 442 33,000  Level Atlanta Center
03:54PM 33.5453 -84.4375 183° South 400 460 33,000  Level Atlanta Center
03:55PM 33.4347 -84.4372 180° South 400 460 33,000  Level Atlanta Center
03:56PM 33.3239 -84.4342 179° South 400 460 33,000  Level Atlanta Center
03:57PM 33.2156 -84.4336 180° South 400 460 33,000  Level Atlanta Center
03:58PM 33.1069 -84.4281 178° South 400 460 33,000  Level Atlanta Center
03:59PM 33.0089 -84.4278 180° South 400 460 33,000  Level Atlanta Center
04:00PM 32.8981 -84.4272 180° South 400 460 33,000  Level Atlanta Center
04:01PM 32.7917 -84.4267 180° South 400 460 33,000  Level Atlanta Center
04:02PM 32.6811 -84.4189 177° South 400 460 33,000  Level Atlanta Center
04:03PM 32.5706 -84.4158 179° South 400 460 33,000  Level Atlanta Center
04:04PM 32.4600 -84.4131 179° South 400 460 33,000  Level Atlanta Center
04:05PM 32.3492 -84.4100 179° South 400 460 33,000  Level Atlanta Center
04:06PM 32.2367 -84.4097 180° South 400 460 33,000  Level Atlanta Center
04:07PM 32.1258 -84.4067 179° South 398 458 33,000  Level Atlanta Center
04:08PM 32.0133 -84.4039 179° South 398 458 33,000  Level Atlanta Center
04:09PM 31.8983 -84.4033 180° South 410 472 33,000  Level Atlanta Center
04:09PM 31.8278 -84.3989 177° South 409 471 33,000  Level Jacksonville Center
04:10PM 31.7150 -84.3994 180° South 409 471 33,000  Level Jacksonville Center
04:11PM 31.6022 -84.3953 178° South 409 471 33,000  Level Jacksonville Center
04:12PM 31.4875 -84.3933 179° South 409 471 33,000  Level Jacksonville Center
04:13PM 31.3725 -84.3914 179° South 409 471 33,000  Level Jacksonville Center
04:14PM 31.2600 -84.3897 179° South 409 471 33,000  Level Jacksonville Center
04:15PM 31.1431 -84.3853 178° South 409 471 33,000  Level Jacksonville Center
04:16PM 31.0283 -84.3836 179° South 409 471 33,000  Level Jacksonville Center
04:17PM 30.9114 -84.3817 179° South 409 471 33,000  Level Jacksonville Center
04:18PM 30.7944 -84.3800 179° South 419 482 33,000  Level Jacksonville Center
04:19PM 30.6756 -84.3781 179° South 419 482 33,000  Level Jacksonville Center
04:20PM 30.5586 -84.3714 177° South 419 482 33,000 -60 Level Jacksonville Center
04:21PM 30.4444 -84.3044 153° Southeast 433 498 32,900 -300 Descending Jacksonville Center
04:22PM 30.3303 -84.2547 159° South 438 504 32,500 -720 Descending Jacksonville Center
04:23PM 30.2156 -84.2508 178° South 421 484 31,500 -780 Descending Jacksonville Center
04:24PM 30.0986 -84.2467 178° South 421 484 31,000 -300 Descending Jacksonville Center
04:25PM 29.9817 -84.2331 174° South 421 484 31,000  Level Jacksonville Center
04:26PM 29.8889 -84.1336 137° Southeast 403 464 31,000  Level Jacksonville Center
04:27PM 29.8442 -83.9844 109° East 436 502 31,000  Level Jacksonville Center
04:28PM 29.7658 -83.8639 127° Southeast 450 518 31,000 -420 Level Jacksonville Center
04:29PM 29.6619 -83.7961 150° Southeast 450 518 30,200 -1,020 Descending Jacksonville Center
04:30PM 29.5497 -83.7233 151° Southeast 470 541 29,000 -1,200 Descending Jacksonville Center
04:31PM 29.4417 -83.6533 151° Southeast 459 528 27,900 -1,080 Descending Jacksonville Center
04:32PM 29.3336 -83.5833 151° Southeast 454 522 26,900 -540 Descending Jacksonville Center
04:33PM 29.2358 -83.5208 151° Southeast 441 507 26,900 -420 Level Jacksonville Center
04:34PM 29.1381 -83.4583 151° Southeast 412 474 26,100 -1,440 Descending Jacksonville Center
04:35PM 29.0400 -83.3961 151° Southeast 406 467 24,100 -1,500 Descending Jacksonville Center
04:36PM 28.9442 -83.3364 151° Southeast 406 467 23,100 -1,500 Descending Jacksonville Center
04:37PM 28.8528 -83.2789 151° Southeast 390 449 21,100 -2,220 Descending Jacksonville Center
04:38PM 28.7672 -83.2219 150° Southeast 375 432 18,700 -2,340 Descending Jacksonville Center
04:39PM 28.6797 -83.1694 152° Southeast 364 419 16,500 -1,980 Descending Jacksonville Center
04:40PM 28.5942 -83.1125 150° Southeast 354 407 14,800 -1,560 Descending Jacksonville Center
04:42PM 28.4833 -83.0500 154° Southeast 333 383 13,000 -840 Descending Tampa TRACON
04:43PM 28.4000 -83.0000 152° Southeast 326 375 13,000 -960 Level Tampa TRACON
04:44PM 28.3333 -82.9333 139° Southeast 329 379 11,100 -2,040 Descending Tampa TRACON
04:45PM 28.2500 -82.8667 145° Southeast 319 367 8,600 -1,980 Descending Tampa TRACON
04:46PM 28.1667 -82.8000 145° Southeast 308 354 6,900 -1,920 Descending Tampa TRACON
04:47PM 28.1167 -82.7500 139° Southeast 261 300 4,800 -2,040 Descending Tampa TRACON
04:48PM 28.0667 -82.7167 150° Southeast 239 275 3,200 -1,560 Descending Tampa TRACON
04:49PM 28.0333 -82.6833 139° Southeast 164 189 2,000 -960 Descending Tampa TRACON
04:50PM 27.9833 -82.6833 180° South 101 116 1,200 -660 Descending Tampa TRACON
04:51PM 27.9667 -82.7000 221° Southwest 110 127 700 -540 Descending Tampa TRACON